createdAt,value
2023-05-01T00:00:29.976Z,6.00
2023-05-01T00:03:31.583Z,5.10
2023-05-01T00:06:33.489Z,4.45
2023-05-01T00:09:34.927Z,6.53
2023-05-01T00:12:36.261Z,7.18
2023-05-01T00:15:41.020Z,4.85
2023-05-01T00:18:42.381Z,4.75
2023-05-01T00:21:48.428Z,5.70
2023-05-01T00:24:50.234Z,6.35
2023-05-01T00:27:51.721Z,6.32
2023-05-01T00:30:53.114Z,6.10
2023-05-01T00:33:54.617Z,6.43
2023-05-01T00:36:56.102Z,6.07
2023-05-01T00:39:57.690Z,6.50
2023-05-01T00:42:59.359Z,6.70
2023-05-01T00:46:01.648Z,6.25
2023-05-01T00:49:04.038Z,4.82
2023-05-01T00:52:05.410Z,5.10
2023-05-01T00:55:07.681Z,6.28
2023-05-01T00:58:10.811Z,5.40
2023-05-01T01:01:12.820Z,8.10
2023-05-01T01:04:14.351Z,5.72
2023-05-01T01:07:41.047Z,4.55
2023-05-01T01:10:58.717Z,4.15
2023-05-01T01:14:08.905Z,6.05
2023-05-01T01:17:17.186Z,5.22
2023-05-01T01:20:35.990Z,4.63
2023-05-01T01:23:52.536Z,4.43
2023-05-01T01:27:13.225Z,4.80
2023-05-01T01:30:36.621Z,3.83
2023-05-01T01:33:51.581Z,5.20
2023-05-01T01:37:04.694Z,4.25
2023-05-01T01:40:13.950Z,6.72
2023-05-01T01:43:18.698Z,5.03
2023-05-01T01:46:21.979Z,4.03
2023-05-01T01:49:26.346Z,6.00
2023-05-01T01:52:30.217Z,5.23
2023-05-01T01:55:35.012Z,4.13
2023-05-01T01:58:38.706Z,7.82
2023-05-01T02:01:41.978Z,6.78
2023-05-01T02:04:45.332Z,7.07
2023-05-01T02:07:49.269Z,6.38
2023-05-01T02:10:51.133Z,8.80
2023-05-01T02:13:55.060Z,4.68
2023-05-01T02:16:58.689Z,4.18
2023-05-01T02:20:00.913Z,5.28
2023-05-01T02:23:04.768Z,7.90
2023-05-01T02:26:08.272Z,7.47
2023-05-01T02:29:10.430Z,6.95
2023-05-01T02:32:12.372Z,6.78
2023-05-01T02:35:13.810Z,7.13
2023-05-01T02:38:16.160Z,7.57
2023-05-01T02:41:21.207Z,10.23
2023-05-01T02:44:24.172Z,7.70
2023-05-01T02:47:28.852Z,6.45
2023-05-01T02:50:31.234Z,7.45
2023-05-01T02:53:33.471Z,7.68
2023-05-01T02:56:35.484Z,7.95
2023-05-01T02:59:37.270Z,7.72
2023-05-01T03:02:38.652Z,7.30
2023-05-01T03:05:41.026Z,8.02
2023-05-01T03:08:42.898Z,5.10
2023-05-01T03:11:44.238Z,8.18
2023-05-01T03:14:45.582Z,7.38
2023-05-01T03:17:46.974Z,9.40
2023-05-01T03:20:53.481Z,7.18
2023-05-01T03:23:54.908Z,7.30
2023-05-01T03:26:56.547Z,5.75
2023-05-01T03:29:58.073Z,5.90
2023-05-01T03:32:59.594Z,10.27
2023-05-01T03:36:04.011Z,9.40
2023-05-01T03:39:05.634Z,9.00
2023-05-01T03:42:07.155Z,13.20
2023-05-01T03:45:09.297Z,4.65
2023-05-01T03:48:10.723Z,5.85
2023-05-01T03:51:12.164Z,6.00
2023-05-01T03:54:13.535Z,9.13
2023-05-01T03:57:14.970Z,7.82
2023-05-01T04:00:16.579Z,7.10
2023-05-01T04:03:18.031Z,8.65
2023-05-01T04:06:19.716Z,6.28
2023-05-01T04:09:21.101Z,8.27
2023-05-01T04:12:22.435Z,8.90
2023-05-01T04:15:23.848Z,9.40
2023-05-01T04:18:25.244Z,10.98
2023-05-01T04:21:26.603Z,7.53
2023-05-01T04:24:27.976Z,5.28
2023-05-01T04:27:29.637Z,5.78
2023-05-01T04:30:31.543Z,6.65
2023-05-01T04:33:33.038Z,8.82
2023-05-01T04:36:34.373Z,7.25
2023-05-01T04:39:36.404Z,7.68
2023-05-01T04:42:37.803Z,7.43
2023-05-01T04:45:39.143Z,6.88
2023-05-01T04:48:40.834Z,9.43
2023-05-01T04:51:42.180Z,5.30
2023-05-01T04:54:43.529Z,9.27
2023-05-01T04:57:44.866Z,8.63
2023-05-01T05:00:46.246Z,7.32
2023-05-01T05:03:50.026Z,7.88
2023-05-01T05:06:51.795Z,8.02
2023-05-01T05:09:53.324Z,10.65
2023-05-01T05:12:54.753Z,7.95
2023-05-01T05:15:56.158Z,8.10
2023-05-01T05:18:57.904Z,8.35
2023-05-01T05:22:01.579Z,9.57
2023-05-01T05:25:04.528Z,10.27
2023-05-01T05:28:05.929Z,10.57
2023-05-01T05:31:07.369Z,8.02
2023-05-01T05:34:08.757Z,6.75
2023-05-01T05:37:10.108Z,14.50
2023-05-01T05:40:11.943Z,10.25
2023-05-01T05:43:13.289Z,10.10
2023-05-01T05:46:14.760Z,6.55
2023-05-01T05:49:16.139Z,11.18
2023-05-01T05:52:17.559Z,7.90
2023-05-01T05:55:18.911Z,12.93
2023-05-01T05:58:20.296Z,11.10
2023-05-01T06:01:21.630Z,8.00
2023-05-01T06:04:22.984Z,8.10
2023-05-01T06:07:25.502Z,10.25
2023-05-01T06:10:26.829Z,8.15
2023-05-01T06:13:28.219Z,11.32
2023-05-01T06:16:29.740Z,7.40
2023-05-01T06:19:31.262Z,8.75
2023-05-01T06:22:32.652Z,8.55
2023-05-01T06:25:34.010Z,9.55
2023-05-01T06:28:35.472Z,10.65
2023-05-01T06:31:36.876Z,10.05
2023-05-01T06:34:38.307Z,8.45
2023-05-01T06:37:39.731Z,10.52
2023-05-01T06:40:41.601Z,7.10
2023-05-01T06:43:42.993Z,10.95
2023-05-01T06:46:44.374Z,10.05
2023-05-01T06:49:45.842Z,8.02
2023-05-01T06:52:47.226Z,9.23
2023-05-01T06:55:48.587Z,9.48
2023-05-01T06:58:50.092Z,8.93
2023-05-01T07:01:52.120Z,10.20
2023-05-01T07:04:53.506Z,8.88
2023-05-01T07:08:01.378Z,14.38
2023-05-01T07:11:03.119Z,8.98
2023-05-01T07:14:04.476Z,8.00
2023-05-01T07:17:06.716Z,9.75
2023-05-01T07:20:08.601Z,9.75
2023-05-01T07:23:09.952Z,10.65
2023-05-01T07:26:11.299Z,15.05
2023-05-01T07:29:13.237Z,9.38
2023-05-01T07:32:14.780Z,9.55
2023-05-01T07:35:16.250Z,7.75
2023-05-01T07:38:18.144Z,7.93
2023-05-01T07:41:19.479Z,7.72
2023-05-01T07:44:20.939Z,9.98
2023-05-01T07:47:22.367Z,9.77
2023-05-01T07:50:24.960Z,7.28
2023-05-01T07:53:26.705Z,9.75
2023-05-01T07:56:28.292Z,8.27
2023-05-01T07:59:29.799Z,7.43
2023-05-01T08:02:31.441Z,7.53
2023-05-01T08:05:32.911Z,7.13
2023-05-01T08:08:34.348Z,7.63
2023-05-01T08:11:35.790Z,8.63
2023-05-01T08:14:37.145Z,8.63
2023-05-01T08:17:38.624Z,7.80
2023-05-01T08:20:40.023Z,9.15
2023-05-01T08:23:41.362Z,8.60
2023-05-01T08:26:42.710Z,7.55
2023-05-01T08:29:44.445Z,8.38
2023-05-01T08:32:45.933Z,6.13
2023-05-01T08:35:48.477Z,9.02
2023-05-01T08:38:49.835Z,8.13
2023-05-01T08:41:52.628Z,6.72
2023-05-01T08:44:59.206Z,6.85
2023-05-01T08:48:01.774Z,6.60
2023-05-01T08:51:04.107Z,6.72
2023-05-01T08:54:06.549Z,7.10
2023-05-01T08:57:10.664Z,5.75
2023-05-01T09:00:18.344Z,7.07
2023-05-01T09:03:21.238Z,9.23
2023-05-01T09:06:23.232Z,8.02
2023-05-01T09:09:24.642Z,9.02
2023-05-01T09:12:26.738Z,9.15
2023-05-01T09:15:30.077Z,7.32
2023-05-01T09:18:31.519Z,7.03
2023-05-01T09:21:32.889Z,6.80
2023-05-01T09:24:34.557Z,10.23
2023-05-01T09:27:36.822Z,6.60
2023-05-01T09:30:39.107Z,6.25
2023-05-01T09:33:57.930Z,8.23
2023-05-01T09:36:59.282Z,8.93
2023-05-01T09:40:26.769Z,9.57
2023-05-01T09:43:29.515Z,6.78
2023-05-01T09:46:42.102Z,8.73
2023-05-01T09:49:49.945Z,8.07
2023-05-01T09:52:52.659Z,5.32
2023-05-01T09:56:01.641Z,11.30
2023-05-01T09:59:20.191Z,8.55
2023-05-01T10:02:29.748Z,8.02
2023-05-01T10:05:43.092Z,8.07
2023-05-01T10:08:49.015Z,7.20
2023-05-01T10:11:55.735Z,9.00
2023-05-01T10:14:57.842Z,10.30
2023-05-01T10:17:59.499Z,7.53
2023-05-01T10:21:00.975Z,6.80
2023-05-01T10:24:03.915Z,6.25
2023-05-01T10:27:06.994Z,10.20
2023-05-01T10:30:09.906Z,8.10
2023-05-01T10:33:13.724Z,8.60
2023-05-01T10:36:23.170Z,7.53
2023-05-01T10:39:32.295Z,9.32
2023-05-01T10:42:33.859Z,7.90
2023-05-01T10:45:36.300Z,7.60
2023-05-01T10:48:37.595Z,9.32
2023-05-01T10:52:04.127Z,11.10
2023-05-01T10:55:34.501Z,10.05
2023-05-01T10:58:38.732Z,13.13
2023-05-01T11:01:48.588Z,11.30
2023-05-01T11:04:51.924Z,13.15
2023-05-01T11:08:33.755Z,11.32
2023-05-01T11:11:35.403Z,13.50
2023-05-01T11:15:02.421Z,14.13
2023-05-01T11:18:05.991Z,15.52
2023-05-01T11:21:09.003Z,15.15
2023-05-01T11:24:10.579Z,11.88
2023-05-01T11:27:13.829Z,13.45
2023-05-01T11:30:16.165Z,13.20
2023-05-01T11:33:23.172Z,10.55
2023-05-01T11:36:24.998Z,12.30
2023-05-01T11:39:26.392Z,16.30
2023-05-01T11:42:27.828Z,13.98
2023-05-01T11:45:30.109Z,12.02
2023-05-01T11:48:31.873Z,13.60
2023-05-01T11:51:33.333Z,12.05
2023-05-01T11:54:47.475Z,14.65
2023-05-01T11:57:53.367Z,12.43
2023-05-01T12:00:54.787Z,14.43
2023-05-01T12:03:56.210Z,13.88
2023-05-01T12:06:58.056Z,16.67
2023-05-01T12:09:59.692Z,15.07
2023-05-01T12:13:02.927Z,13.35
2023-05-01T12:16:06.030Z,14.50
2023-05-01T12:19:08.087Z,12.90
2023-05-01T12:22:09.574Z,15.85
2023-05-01T12:25:11.008Z,15.70
2023-05-01T12:28:15.462Z,13.95
2023-05-01T12:31:17.170Z,13.02
2023-05-01T12:34:18.824Z,12.73
2023-05-01T12:37:20.384Z,14.90
2023-05-01T12:40:22.937Z,13.20
2023-05-01T12:43:32.721Z,14.32
2023-05-01T12:46:34.194Z,10.65
2023-05-01T12:49:37.699Z,12.25
2023-05-01T12:52:39.148Z,13.10
2023-05-01T12:55:47.693Z,16.98
2023-05-01T12:58:49.323Z,14.07
2023-05-01T13:02:03.410Z,14.25
2023-05-01T13:05:09.039Z,18.70
2023-05-01T13:08:10.457Z,14.82
2023-05-01T13:11:14.184Z,15.43
2023-05-01T13:14:16.431Z,13.23
2023-05-01T13:17:26.825Z,15.18
2023-05-01T13:20:28.431Z,16.08
2023-05-01T13:23:30.121Z,16.98
2023-05-01T13:26:35.160Z,12.57
2023-05-01T13:32:41.700Z,12.45
2023-05-01T13:38:50.937Z,13.18
2023-05-01T13:41:53.534Z,13.90
2023-05-01T13:44:57.114Z,13.25
2023-05-01T13:47:59.083Z,15.45
2023-05-01T13:51:00.660Z,16.20
2023-05-01T13:54:03.303Z,13.57
2023-05-01T13:57:05.135Z,16.73
2023-05-01T14:00:09.015Z,14.30
2023-05-01T14:03:10.926Z,13.52
2023-05-01T14:06:14.741Z,13.18
2023-05-01T14:09:19.389Z,14.20
2023-05-01T14:12:27.079Z,13.80
2023-05-01T14:15:29.440Z,13.88
2023-05-01T14:18:30.927Z,12.60
2023-05-01T14:21:38.797Z,14.70
2023-05-01T14:24:41.209Z,13.25
2023-05-01T14:27:42.560Z,12.90
2023-05-01T14:30:44.135Z,13.23
2023-05-01T14:33:45.562Z,12.57
2023-05-01T14:36:46.969Z,11.85
2023-05-01T14:39:48.347Z,12.98
2023-05-01T14:42:50.581Z,10.70
2023-05-01T14:45:52.322Z,14.32
2023-05-01T14:48:53.862Z,13.38
2023-05-01T14:51:55.318Z,11.60
2023-05-01T14:54:56.850Z,10.95
2023-05-01T14:57:58.324Z,10.27
2023-05-01T15:01:00.266Z,9.45
2023-05-01T15:04:03.631Z,10.85
2023-05-01T15:07:05.415Z,11.55
2023-05-01T15:10:07.142Z,10.27
2023-05-01T15:13:09.060Z,11.13
2023-05-01T15:16:11.067Z,11.18
2023-05-01T15:19:12.543Z,11.48
2023-05-01T15:22:13.954Z,10.70
2023-05-01T15:25:16.329Z,8.55
2023-05-01T15:28:18.037Z,8.77
2023-05-01T15:31:19.467Z,10.27
2023-05-01T15:34:21.029Z,8.38
2023-05-01T15:37:25.686Z,10.40
2023-05-01T15:40:27.101Z,9.07
2023-05-01T15:43:28.493Z,10.70
2023-05-01T15:46:29.922Z,8.52
2023-05-01T15:49:31.353Z,8.35
2023-05-01T15:52:32.706Z,13.80
2023-05-01T15:55:34.670Z,11.45
2023-05-01T15:58:36.102Z,12.80
2023-05-01T16:01:37.516Z,9.45
2023-05-01T16:04:39.031Z,8.13
2023-05-01T16:07:40.452Z,10.32
2023-05-01T16:10:41.946Z,9.35
2023-05-01T16:13:43.318Z,7.38
2023-05-01T16:16:44.753Z,11.57
2023-05-01T16:19:46.977Z,6.28
2023-05-01T16:22:48.413Z,8.15
2023-05-01T16:25:49.788Z,8.10
2023-05-01T16:28:51.832Z,10.65
